Time;durP1;ratioP1;P1;durP2;ratioP2;P2;SDS_P1;SDS_P2;PMS_P1;PMS_P2;Temp;Humidity;BMP_temperature;BMP_pressure;BME280_temperature;BME280_humidity;BME280_pressure;Samples;Min_cycle;Max_cycle;Signal;HPM_P1;HPM_P2
2024/01/26 00:00:09;;;;;;;16.02;13.38;;;17.70;90.30;;;;;;5031239;28;20135;-66
2024/01/26 00:02:35;;;;;;;16.73;12.93;;;;;;;;;;5031847;28;20122;-66
2024/01/26 00:05:01;;;;;;;16.25;13.18;;;;;;;;;;5031752;28;20180;-67
2024/01/26 00:07:27;;;;;;;16.38;13.05;;;;;;;;;;5033184;28;20048;-66
2024/01/26 00:09:53;;;;;;;15.43;12.18;;;17.50;90.30;;;;;;5032991;28;20072;-67
2024/01/26 00:12:18;;;;;;;14.55;11.82;;;17.60;90.30;;;;;;5033186;28;20068;-65
2024/01/26 00:14:44;;;;;;;14.60;11.90;;;17.50;90.30;;;;;;5032908;28;20053;-66
2024/01/26 00:17:10;;;;;;;13.15;11.30;;;;;;;;;;5031801;28;20549;-65
2024/01/26 00:19:36;;;;;;;13.90;11.05;;;;;;;;;;5015060;28;20844;-66
2024/01/26 00:22:03;;;;;;;15.75;11.20;;;;;;;;;;4998218;28;20448;-66
2024/01/26 00:24:29;;;;;;;12.73;10.23;;;;;;;;;;5031204;28;20056;-66
2024/01/26 00:26:55;;;;;;;14.50;10.82;;;17.50;90.60;;;;;;5031245;28;20053;-66
2024/01/26 00:29:21;;;;;;;11.85;9.95;;;17.60;90.60;;;;;;5047820;28;20476;-66
2024/01/26 00:31:47;;;;;;;11.82;9.95;;;;;;;;;;5031812;28;20095;-66
2024/01/26 00:34:12;;;;;;;12.50;9.70;;;17.30;90.60;;;;;;5031165;28;20099;-66
2024/01/26 00:36:38;;;;;;;11.05;9.10;;;17.30;90.70;;;;;;5030141;28;20061;-67
2024/01/26 00:39:04;;;;;;;11.82;9.20;;;17.50;90.90;;;;;;5047689;28;20119;-67
2024/01/26 00:41:31;;;;;;;11.48;8.85;;;17.30;91.00;;;;;;5064051;28;20042;-66
2024/01/26 00:43:57;;;;;;;11.23;9.18;;;17.40;91.00;;;;;;5031299;28;20213;-66
2024/01/26 00:46:23;;;;;;;11.68;9.20;;;17.30;91.10;;;;;;5032132;28;20046;-66
2024/01/26 00:48:49;;;;;;;11.13;9.05;;;17.20;91.20;;;;;;5032269;28;20114;-66
2024/01/26 00:51:14;;;;;;;11.45;9.35;;;17.20;91.00;;;;;;5011289;28;20484;-66
2024/01/26 00:53:40;;;;;;;11.48;9.52;;;17.10;91.00;;;;;;5032241;28;20045;-66
2024/01/26 00:56:06;;;;;;;11.98;8.82;;;17.10;90.90;;;;;;5029494;28;20049;-67
2024/01/26 00:58:31;;;;;;;11.98;9.07;;;17.20;91.10;;;;;;5047668;28;20037;-67
2024/01/26 01:00:57;;;;;;;11.10;8.45;;;17.30;91.20;;;;;;5032455;28;20053;-66
2024/01/26 01:03:23;;;;;;;11.20;8.70;;;;;;;;;;5064794;28;20060;-67
2024/01/26 01:05:50;;;;;;;11.02;8.70;;;;;;;;;;5031385;28;20041;-66
2024/01/26 01:08:15;;;;;;;10.77;8.60;;;17.10;91.40;;;;;;5042118;28;20045;-66
2024/01/26 01:10:41;;;;;;;11.35;8.75;;;17.10;91.50;;;;;;5052235;28;20102;-65
2024/01/26 01:13:10;;;;;;;12.15;9.48;;;17.00;91.70;;;;;;5035258;28;20048;-66
2024/01/26 01:15:37;;;;;;;13.23;9.40;;;17.20;91.40;;;;;;5031383;28;20076;-66
2024/01/26 01:18:03;;;;;;;12.27;9.70;;;16.80;91.60;;;;;;4996608;28;20597;-66
2024/01/26 01:20:29;;;;;;;11.85;9.18;;;16.90;91.60;;;;;;5063600;28;20099;-67
2024/01/26 01:22:58;;;;;;;12.43;9.35;;;16.90;90.30;;;;;;5048368;28;20095;-67
2024/01/26 01:25:25;;;;;;;13.77;10.18;;;16.90;91.90;;;;;;5031633;28;20494;-66
2024/01/26 01:27:50;;;;;;;12.63;9.63;;;17.00;90.70;;;;;;5031567;28;20041;-66
2024/01/26 01:30:16;;;;;;;13.60;10.48;;;17.00;90.40;;;;;;5030780;28;20091;-66
2024/01/26 01:32:42;;;;;;;13.00;10.10;;;16.90;90.80;;;;;;5028527;28;20037;-66
2024/01/26 01:35:08;;;;;;;13.13;10.32;;;16.80;92.50;;;;;;5062814;28;20135;-66
2024/01/26 01:37:34;;;;;;;12.20;10.13;;;16.80;90.90;;;;;;5030113;28;20049;-66
2024/01/26 01:39:59;;;;;;;12.60;9.98;;;16.70;90.90;;;;;;5046696;28;20519;-66
2024/01/26 01:42:25;;;;;;;13.05;10.25;;;;;;;;;;5029237;28;20052;-66
2024/01/26 01:44:51;;;;;;;13.48;10.95;;;;;;;;;;5061099;28;20046;-67
2024/01/26 01:47:17;;;;;;;13.13;10.32;;;;;;;;;;5060400;28;20052;-66
2024/01/26 01:49:43;;;;;;;13.07;10.63;;;16.60;91.50;;;;;;5030005;28;20045;-66
2024/01/26 01:52:18;;;;;;;13.60;10.00;;;16.60;90.30;;;;;;5029727;28;20060;-66
2024/01/26 01:54:44;;;;;;;14.30;11.00;;;;;;;;;;5030228;28;20042;-66
2024/01/26 01:57:12;;;;;;;14.30;11.02;;;;;;;;;;5013665;28;20061;-66
2024/01/26 01:59:37;;;;;;;13.55;10.75;;;16.60;91.50;;;;;;5031183;28;20168;-66
2024/01/26 02:02:04;;;;;;;13.70;10.43;;;16.60;91.70;;;;;;5067255;28;20124;-66
2024/01/26 02:04:30;;;;;;;14.82;10.95;;;16.60;91.70;;;;;;5017090;28;20045;-66
2024/01/26 02:06:56;;;;;;;14.10;11.30;;;16.50;91.80;;;;;;5034026;28;20049;-66
2024/01/26 02:09:22;;;;;;;13.80;11.10;;;;;;;;;;5050218;28;20041;-67
2024/01/26 02:11:48;;;;;;;14.07;11.30;;;16.60;91.80;;;;;;5033047;28;20037;-65
2024/01/26 02:14:13;;;;;;;13.57;11.63;;;16.30;91.70;;;;;;5066864;28;20045;-66
2024/01/26 02:16:40;;;;;;;15.15;11.52;;;;;;;;;;5035144;28;20045;-67
2024/01/26 02:19:05;;;;;;;14.27;11.43;;;16.30;91.90;;;;;;5034461;28;20087;-67
2024/01/26 02:21:31;;;;;;;14.48;11.93;;;;;;;;;;5034990;28;20058;-66
2024/01/26 02:23:57;;;;;;;14.80;11.68;;;16.50;92.10;;;;;;5034424;28;20042;-67
2024/01/26 02:26:23;;;;;;;15.02;12.35;;;;;;;;;;5068296;28;20119;-67
2024/01/26 02:28:48;;;;;;;14.68;12.00;;;16.40;92.20;;;;;;5049880;28;20439;-66
2024/01/26 02:31:14;;;;;;;15.75;12.63;;;16.60;92.60;;;;;;5033451;28;20080;-66
2024/01/26 02:33:40;;;;;;;15.38;12.48;;;16.40;92.80;;;;;;5032757;28;20499;-67
2024/01/26 02:36:06;;;;;;;16.13;12.98;;;16.50;92.90;;;;;;5033117;28;20402;-67
2024/01/26 02:38:32;;;;;;;14.10;12.60;;;16.30;92.50;;;;;;5066475;28;20076;-67
2024/01/26 02:40:58;;;;;;;16.13;13.15;;;;;;;;;;5034436;28;20041;-67
2024/01/26 02:43:23;;;;;;;14.93;12.15;;;16.40;92.90;;;;;;5031563;28;20407;-67
2024/01/26 02:45:49;;;;;;;14.88;12.02;;;16.50;92.90;;;;;;5033655;28;20085;-68
2024/01/26 02:48:15;;;;;;;14.40;12.43;;;16.20;91.40;;;;;;5032417;28;20053;-67
2024/01/26 02:50:41;;;;;;;14.55;12.27;;;16.40;92.10;;;;;;5032702;28;20064;-67
2024/01/26 02:53:06;;;;;;;15.68;12.48;;;16.40;91.80;;;;;;5049584;28;20138;-67
2024/01/26 02:55:32;;;;;;;15.27;12.32;;;16.50;91.90;;;;;;5033167;28;20129;-67
2024/01/26 02:57:58;;;;;;;15.65;13.27;;;16.30;92.00;;;;;;5033309;28;20053;-67
2024/01/26 03:00:23;;;;;;;14.23;12.32;;;16.40;92.00;;;;;;5049464;28;20045;-67
2024/01/26 03:02:49;;;;;;;14.75;12.30;;;16.10;93.30;;;;;;5034285;28;20040;-67
2024/01/26 03:05:15;;;;;;;17.75;13.75;;;16.30;91.60;;;;;;5031661;28;20411;-66
2024/01/26 03:07:41;;;;;;;14.57;12.82;;;16.20;92.80;;;;;;5032590;28;20402;-66
2024/01/26 03:10:07;;;;;;;15.10;13.02;;;16.30;92.60;;;;;;5048232;28;20056;-66
2024/01/26 03:12:36;;;;;;;15.40;12.88;;;;;;;;;;5065073;28;20410;-67
2024/01/26 03:15:01;;;;;;;14.85;13.25;;;16.30;92.40;;;;;;5033574;28;20540;-66
2024/01/26 03:17:27;;;;;;;13.75;11.82;;;16.40;92.30;;;;;;5033789;28;20075;-66
2024/01/26 03:19:53;;;;;;;13.70;11.90;;;16.40;92.30;;;;;;5031964;28;20046;-67
2024/01/26 03:22:19;;;;;;;14.23;12.43;;;;;;;;;;5032532;28;20098;-66
2024/01/26 03:24:45;;;;;;;15.02;13.00;;;;;;;;;;5032443;28;20045;-67
2024/01/26 03:27:11;;;;;;;18.23;11.85;;;16.20;92.20;;;;;;5032098;28;20053;-67
2024/01/26 03:29:37;;;;;;;14.38;12.32;;;16.30;92.30;;;;;;5065973;28;20045;-66
2024/01/26 03:32:02;;;;;;;14.70;12.48;;;16.20;91.30;;;;;;5031809;28;20034;-66
2024/01/26 03:34:28;;;;;;;16.73;12.52;;;16.20;92.30;;;;;;5031067;28;20495;-67
2024/01/26 03:36:54;;;;;;;13.60;11.77;;;16.20;92.30;;;;;;5032006;28;20037;-67
2024/01/26 03:39:20;;;;;;;14.27;12.38;;;;;;;;;;5031655;28;20065;-67
2024/01/26 03:41:46;;;;;;;12.50;11.20;;;;;;;;;;5065286;28;20053;-67
2024/01/26 03:44:12;;;;;;;13.18;11.75;;;;;;;;;;5032520;28;20045;-67
2024/01/26 03:46:42;;;;;;;13.20;11.48;;;16.30;92.30;;;;;;5031678;28;20041;-66
2024/01/26 03:49:09;;;;;;;13.43;11.95;;;;;;;;;;5033554;28;20053;-66
2024/01/26 03:51:36;;;;;;;13.63;11.57;;;16.10;92.30;;;;;;5032453;28;20108;-66
2024/01/26 03:54:01;;;;;;;13.73;12.10;;;16.20;92.30;;;;;;5031610;28;20060;-67
2024/01/26 03:56:27;;;;;;;13.00;11.15;;;;;;;;;;5015046;28;20041;-67
2024/01/26 03:58:53;;;;;;;12.95;11.38;;;16.10;92.30;;;;;;5064817;28;20056;-66
2024/01/26 04:01:20;;;;;;;13.32;11.68;;;16.20;92.40;;;;;;5032009;28;20049;-66
2024/01/26 04:03:46;;;;;;;13.15;11.05;;;;;;;;;;5031393;28;20184;-67
2024/01/26 04:06:12;;;;;;;12.48;10.55;;;;;;;;;;5032839;28;20042;-67
2024/01/26 04:08:38;;;;;;;12.40;10.63;;;16.20;92.40;;;;;;5064867;28;20045;-67
2024/01/26 04:11:04;;;;;;;12.20;10.73;;;16.00;92.40;;;;;;5014755;28;20052;-67
2024/01/26 04:13:30;;;;;;;13.13;10.88;;;;;;;;;;5031379;28;20124;-67
2024/01/26 04:15:56;;;;;;;11.02;9.73;;;;;;;;;;5032796;28;20052;-66
2024/01/26 04:18:22;;;;;;;13.80;10.15;;;16.00;92.00;;;;;;5031303;28;20487;-67
2024/01/26 04:20:48;;;;;;;12.93;10.65;;;16.00;92.50;;;;;;5015307;28;20049;-67
2024/01/26 04:23:15;;;;;;;11.85;10.15;;;16.20;91.10;;;;;;5030685;28;20100;-67
2024/01/26 04:25:41;;;;;;;12.57;10.38;;;15.90;92.70;;;;;;5045567;28;20104;-67
2024/01/26 04:28:07;;;;;;;11.48;10.05;;;;;;;;;;5032735;28;20049;-66
2024/01/26 04:30:34;;;;;;;11.25;9.82;;;16.00;92.70;;;;;;5031770;28;20111;-67
2024/01/26 04:33:00;;;;;;;11.63;9.98;;;16.10;92.80;;;;;;5032025;28;20198;-67
2024/01/26 04:35:26;;;;;;;12.75;10.07;;;;;;;;;;5030263;28;20041;-67
2024/01/26 04:37:53;;;;;;;11.70;9.52;;;;;;;;;;5032160;28;20049;-67
2024/01/26 04:40:19;;;;;;;11.63;9.60;;;15.90;92.80;;;;;;5031001;28;20053;-66
2024/01/26 04:42:44;;;;;;;10.52;9.10;;;15.80;92.80;;;;;;5031009;28;20052;-66
2024/01/26 04:45:10;;;;;;;11.05;9.52;;;;;;;;;;5064178;28;20045;-67
2024/01/26 04:47:37;;;;;;;12.57;9.88;;;;;;;;;;5014568;28;20045;-66
2024/01/26 04:50:03;;;;;;;11.02;9.40;;;;;;;;;;5014213;28;20077;-66
2024/01/26 04:52:29;;;;;;;11.55;9.77;;;15.90;92.90;;;;;;5046984;28;20432;-67
2024/01/26 04:54:55;;;;;;;11.18;9.45;;;;;;;;;;5030925;28;20071;-67
2024/01/26 04:57:21;;;;;;;10.65;9.43;;;;;;;;;;5030086;28;20048;-67
2024/01/26 04:59:47;;;;;;;11.15;8.98;;;15.80;93.10;;;;;;5007633;28;20050;-67
2024/01/26 05:02:12;;;;;;;11.45;9.27;;;15.90;92.20;;;;;;5063829;28;20111;-66
2024/01/26 05:04:38;;;;;;;12.38;9.68;;;;;;;;;;5046019;28;20187;-67
2024/01/26 05:07:04;;;;;;;11.00;9.50;;;15.70;93.10;;;;;;5031807;28;20042;-67
2024/01/26 05:09:30;;;;;;;11.00;9.32;;;15.80;93.20;;;;;;5063186;28;20103;-67
2024/01/26 05:11:55;;;;;;;11.23;9.43;;;15.90;93.30;;;;;;5047318;28;20098;-66
2024/01/26 05:14:22;;;;;;;11.00;8.90;;;15.70;93.30;;;;;;5063276;28;20053;-67
2024/01/26 05:16:48;;;;;;;10.35;9.25;;;;;;;;;;5030895;28;20046;-67
2024/01/26 05:19:14;;;;;;;11.10;8.98;;;15.90;92.20;;;;;;5045656;28;20053;-67
2024/01/26 05:21:40;;;;;;;10.63;9.32;;;15.80;93.50;;;;;;5013525;28;20087;-66
2024/01/26 05:24:06;;;;;;;11.23;9.52;;;15.60;93.50;;;;;;5029807;28;20050;-66
2024/01/26 05:26:32;;;;;;;11.45;9.93;;;15.70;93.50;;;;;;5063037;28;20033;-67
2024/01/26 05:28:58;;;;;;;10.70;9.30;;;;;;;;;;5030141;28;20045;-67
2024/01/26 05:31:23;;;;;;;11.40;9.07;;;15.80;93.50;;;;;;5046459;28;20067;-67
2024/01/26 05:33:49;;;;;;;11.10;9.00;;;15.60;93.50;;;;;;5029650;28;20053;-67
2024/01/26 05:36:14;;;;;;;9.98;8.93;;;15.60;92.70;;;;;;4996975;28;20045;-66
2024/01/26 05:38:41;;;;;;;11.15;9.25;;;;;;;;;;5029567;28;20050;-65
2024/01/26 05:41:06;;;;;;;12.10;9.63;;;15.60;93.60;;;;;;5013597;28;20057;-67
2024/01/26 05:43:32;;;;;;;10.88;9.38;;;15.50;93.70;;;;;;5031818;28;20044;-67
2024/01/26 05:45:58;;;;;;;11.85;9.15;;;;;;;;;;5046182;28;20103;-66
2024/01/26 05:48:24;;;;;;;11.07;8.80;;;;;;;;;;5029643;28;20457;-66
2024/01/26 05:50:51;;;;;;;11.55;9.05;;;;;;;;;;5063216;28;20115;-66
2024/01/26 05:53:16;;;;;;;11.77;9.43;;;15.50;93.80;;;;;;5030813;28;20045;-66
2024/01/26 05:55:42;;;;;;;13.18;9.25;;;15.50;93.90;;;;;;5029816;28;20053;-66
2024/01/26 05:58:08;;;;;;;10.75;9.20;;;;;;;;;;5046531;28;20056;-66
2024/01/26 06:00:34;;;;;;;11.25;8.80;;;15.60;94.00;;;;;;5030495;28;20211;-65
2024/01/26 06:03:01;;;;;;;12.15;8.95;;;15.60;94.10;;;;;;5030277;28;20156;-66
2024/01/26 06:05:27;;;;;;;10.70;9.15;;;;;;;;;;5030741;28;20049;-66
2024/01/26 06:07:52;;;;;;;10.60;8.90;;;15.40;94.20;;;;;;5029920;28;20042;-66
2024/01/26 06:10:18;;;;;;;15.02;9.90;;;;;;;;;;5062384;28;20398;-66
2024/01/26 06:12:44;;;;;;;12.20;9.43;;;15.50;94.30;;;;;;5013002;28;20049;-66
2024/01/26 06:15:10;;;;;;;13.75;10.15;;;15.50;94.40;;;;;;5030412;28;20388;-65
2024/01/26 06:17:36;;;;;;;10.70;9.20;;;;;;;;;;5061935;28;20056;-66
2024/01/26 06:20:05;;;;;;;12.25;10.27;;;15.40;93.50;;;;;;5029869;28;20128;-66
2024/01/26 06:22:32;;;;;;;12.00;10.52;;;15.50;94.60;;;;;;5047607;28;20046;-66
2024/01/26 06:24:57;;;;;;;10.93;9.52;;;15.30;94.60;;;;;;5045986;28;20046;-65
2024/01/26 06:27:23;;;;;;;12.15;10.55;;;15.40;94.70;;;;;;5030826;28;20095;-66
2024/01/26 06:29:49;;;;;;;11.55;10.18;;;15.30;94.70;;;;;;5030596;28;20057;-66
2024/01/26 06:32:16;;;;;;;11.80;10.00;;;;;;;;;;5032284;28;20067;-65
2024/01/26 06:34:42;;;;;;;11.77;10.07;;;15.20;94.70;;;;;;5031297;28;20395;-66
2024/01/26 06:37:08;;;;;;;11.50;10.02;;;;;;;;;;5030831;28;20045;-65
2024/01/26 06:39:34;;;;;;;10.80;9.70;;;;;;;;;;5030409;28;20815;-66
2024/01/26 06:42:00;;;;;;;13.32;9.82;;;;;;;;;;5027731;28;20049;-65
2024/01/26 06:44:26;;;;;;;11.73;9.82;;;15.30;94.90;;;;;;5023871;28;20127;-65
2024/01/26 06:46:51;;;;;;;12.27;10.00;;;15.20;95.00;;;;;;5032721;28;20080;-65
2024/01/26 06:49:17;;;;;;;12.48;9.88;;;;;;;;;;5033737;28;20042;-66
2024/01/26 06:51:43;;;;;;;10.90;9.68;;;;;;;;;;5034756;28;20037;-66
2024/01/26 06:54:09;;;;;;;11.85;9.45;;;;;;;;;;5033402;28;20140;-65
2024/01/26 06:56:35;;;;;;;11.07;9.27;;;15.30;95.00;;;;;;5033767;28;20049;-67
2024/01/26 06:59:01;;;;;;;11.63;10.07;;;;;;;;;;5033986;28;20049;-65
2024/01/26 07:01:27;;;;;;;10.52;8.98;;;15.30;95.10;;;;;;5034082;28;20115;-66
2024/01/26 07:03:53;;;;;;;11.07;8.10;;;15.30;95.20;;;;;;5033998;28;20045;-65
2024/01/26 07:06:19;;;;;;;11.00;8.82;;;;;;;;;;5065517;28;20057;-66
2024/01/26 07:08:44;;;;;;;10.27;9.18;;;15.40;95.20;;;;;;5032313;28;20413;-66
2024/01/26 07:11:10;;;;;;;11.57;9.38;;;15.40;95.20;;;;;;5033609;28;20041;-66
2024/01/26 07:13:36;;;;;;;10.20;8.65;;;;;;;;;;5033383;28;20561;-65
2024/01/26 07:16:02;;;;;;;9.38;8.35;;;15.30;95.20;;;;;;5035463;28;20514;-67
2024/01/26 07:18:28;;;;;;;11.15;8.43;;;15.30;95.30;;;;;;5032640;28;20056;-67
2024/01/26 07:20:53;;;;;;;8.57;7.60;;;15.30;95.40;;;;;;5048437;28;20048;-67
2024/01/26 07:23:19;;;;;;;9.32;7.63;;;;;;;;;;5048932;28;20076;-64
2024/01/26 07:25:46;;;;;;;9.70;7.60;;;;;;;;;;5032277;28;20079;-66
2024/01/26 07:28:11;;;;;;;8.60;7.40;;;15.30;95.40;;;;;;5031977;28;20037;-64
2024/01/26 07:30:37;;;;;;;9.27;7.25;;;15.10;95.40;;;;;;5048518;28;20049;-65
2024/01/26 07:33:03;;;;;;;7.97;6.78;;;15.30;95.50;;;;;;5033722;28;20127;-65
2024/01/26 07:35:28;;;;;;;8.48;6.75;;;15.30;95.50;;;;;;5033192;28;20095;-65
2024/01/26 07:37:54;;;;;;;8.23;6.47;;;15.20;95.50;;;;;;5067177;28;20041;-65
2024/01/26 07:40:20;;;;;;;9.10;7.13;;;15.20;95.60;;;;;;5031853;28;20578;-64
2024/01/26 07:42:46;;;;;;;7.45;6.10;;;;;;;;;;5032139;28;20049;-67
2024/01/26 07:45:13;;;;;;;8.07;6.00;;;;;;;;;;5016037;28;20410;-66
2024/01/26 07:47:39;;;;;;;9.32;5.75;;;15.20;95.60;;;;;;5061283;28;20060;-66
2024/01/26 07:50:05;;;;;;;7.88;5.65;;;15.20;95.60;;;;;;5031798;28;20423;-66
2024/01/26 07:52:31;;;;;;;7.65;5.95;;;15.30;94.20;;;;;;5027872;28;20041;-66
2024/01/26 07:54:57;;;;;;;7.32;5.50;;;;;;;;;;5041071;28;20057;-66
2024/01/26 07:57:25;;;;;;;7.03;5.20;;;15.20;95.60;;;;;;5055280;28;20120;-64
2024/01/26 07:59:51;;;;;;;7.05;5.40;;;15.20;95.70;;;;;;5056400;28;20045;-65
2024/01/26 08:02:17;;;;;;;6.47;5.18;;;;;;;;;;5031269;28;20492;-64
2024/01/26 08:04:43;;;;;;;6.65;5.30;;;15.20;95.70;;;;;;5032010;28;20093;-66
2024/01/26 08:07:08;;;;;;;7.07;4.85;;;15.30;95.80;;;;;;5015794;28;20073;-65
2024/01/26 08:09:35;;;;;;;6.90;4.60;;;;;;;;;;5033966;28;20041;-66
2024/01/26 08:12:01;;;;;;;7.28;4.55;;;;;;;;;;5030878;28;20061;-67
2024/01/26 08:14:27;;;;;;;6.10;4.07;;;;;;;;;;5033408;28;20140;-67
2024/01/26 08:16:53;;;;;;;6.63;3.95;;;15.50;95.90;;;;;;5033187;28;20060;-67
2024/01/26 08:19:18;;;;;;;5.63;3.90;;;15.50;95.90;;;;;;5031692;28;20050;-68
2024/01/26 08:21:45;;;;;;;6.75;3.75;;;;;;;;;;5033213;28;20408;-67
2024/01/26 08:24:10;;;;;;;5.38;3.60;;;15.50;95.80;;;;;;5033470;28;20042;-68
2024/01/26 08:26:36;;;;;;;6.57;3.40;;;;;;;;;;5033036;28;20049;-68
2024/01/26 08:29:02;;;;;;;7.25;3.70;;;;;;;;;;5046021;28;20056;-70
2024/01/26 08:31:29;;;;;;;6.70;3.28;;;;;;;;;;5064758;28;20099;-69
2024/01/26 08:33:55;;;;;;;10.77;3.45;;;;;;;;;;5030765;28;20136;-71
2024/01/26 08:36:21;;;;;;;28.83;5.72;;;15.70;95.70;;;;;;5030898;28;20080;-71
2024/01/26 08:38:49;;;;;;;43.70;4.97;;;;;;;;;;5032563;28;20099;-71
2024/01/26 08:41:16;;;;;;;26.70;4.63;;;15.80;95.10;;;;;;5031972;28;20411;-70
2024/01/26 08:43:43;;;;;;;13.05;3.42;;;16.40;94.60;;;;;;5046341;28;20055;-70
2024/01/26 08:46:09;;;;;;;17.67;3.83;;;15.50;95.50;;;;;;5014492;28;20482;-70
2024/01/26 08:48:35;;;;;;;13.23;3.50;;;15.80;95.60;;;;;;5014816;28;20045;-68
2024/01/26 08:51:00;;;;;;;10.73;3.30;;;15.70;94.20;;;;;;5030171;28;20034;-70
2024/01/26 08:53:27;;;;;;;11.05;3.08;;;;;;;;;;5033830;28;20044;-70
2024/01/26 08:55:53;;;;;;;24.63;3.00;;;;;;;;;;5033725;28;20088;-64
2024/01/26 08:58:18;;;;;;;7.35;2.75;;;15.60;95.60;;;;;;5031699;28;20049;-64
2024/01/26 09:00:45;;;;;;;16.17;2.92;;;15.70;95.70;;;;;;5030303;28;20046;-65
2024/01/26 09:03:11;;;;;;;13.95;2.80;;;;;;;;;;5044855;28;20049;-65
2024/01/26 09:05:37;;;;;;;9.23;2.53;;;15.70;95.70;;;;;;5030567;28;20045;-65
2024/01/26 09:08:03;;;;;;;8.88;2.88;;;15.70;94.40;;;;;;5032044;28;20067;-66
2024/01/26 09:10:29;;;;;;;8.50;2.50;;;15.90;95.70;;;;;;5031242;28;20526;-71
2024/01/26 09:12:54;;;;;;;10.20;2.38;;;15.70;95.60;;;;;;5032086;28;20053;-71
2024/01/26 09:15:21;;;;;;;10.63;2.78;;;;;;;;;;5030398;28;20517;-73
2024/01/26 09:17:47;;;;;;;5.85;2.20;;;15.70;95.60;;;;;;5031323;28;20046;-73
2024/01/26 09:20:13;;;;;;;3.03;1.63;;;;;;;;;;5029604;28;20099;-72
2024/01/26 09:22:39;;;;;;;5.28;1.92;;;15.90;95.70;;;;;;5037466;28;20049;-72
2024/01/26 09:25:05;;;;;;;6.80;2.00;;;15.80;95.70;;;;;;5030089;28;20056;-71
2024/01/26 09:27:30;;;;;;;5.95;1.75;;;15.60;95.70;;;;;;5031908;28;20129;-72
2024/01/26 09:29:56;;;;;;;7.95;1.80;;;15.70;94.80;;;;;;5030076;28;20129;-72
2024/01/26 09:32:22;;;;;;;4.15;1.70;;;15.50;95.60;;;;;;5030231;28;20059;-72
2024/01/26 09:34:48;;;;;;;3.92;1.70;;;15.70;95.60;;;;;;5030485;28;20647;-72
2024/01/26 09:37:14;;;;;;;8.45;1.75;;;;;;;;;;5029754;28;20124;-71
2024/01/26 09:39:40;;;;;;;4.65;1.63;;;15.70;95.80;;;;;;5046801;28;20065;-68
2024/01/26 09:42:06;;;;;;;3.75;1.63;;;15.60;95.80;;;;;;5046361;28;20048;-67
2024/01/26 09:44:32;;;;;;;4.85;1.60;;;;;;;;;;5044584;28;20045;-73
2024/01/26 09:46:58;;;;;;;5.75;2.00;;;;;;;;;;5062369;28;20738;-67
2024/01/26 09:49:25;;;;;;;5.07;1.63;;;15.70;95.60;;;;;;5013612;28;20100;-71
2024/01/26 09:51:51;;;;;;;8.45;2.47;;;15.70;95.70;;;;;;5061615;28;20120;-66
2024/01/26 09:54:17;;;;;;;12.52;2.17;;;;;;;;;;5012571;28;20184;-68
2024/01/26 09:56:43;;;;;;;12.75;2.05;;;;;;;;;;5044593;28;20372;-73
2024/01/26 09:59:10;;;;;;;16.10;2.53;;;;;;;;;;5029294;28;20050;-72
2024/01/26 10:01:37;;;;;;;13.07;2.10;;;;;;;;;;5045969;28;20426;-71
2024/01/26 10:04:03;;;;;;;11.25;2.03;;;;;;;;;;5046700;28;20056;-69
2024/01/26 10:06:29;;;;;;;5.88;1.70;;;15.80;94.50;;;;;;5027521;28;20053;-68
2024/01/26 10:08:55;;;;;;;8.70;1.75;;;15.80;95.80;;;;;;5029662;28;20132;-66
2024/01/26 10:11:21;;;;;;;9.70;2.00;;;;;;;;;;5030034;28;20112;-66
2024/01/26 10:13:47;;;;;;;7.80;1.90;;;16.00;95.80;;;;;;5045509;28;20132;-66
2024/01/26 10:16:13;;;;;;;7.53;1.60;;;16.00;95.80;;;;;;5012740;28;20560;-66
2024/01/26 10:18:46;;;;;;;7.30;1.42;;;15.90;94.00;;;;;;5013180;28;20061;-65
2024/01/26 10:21:12;;;;;;;;;;;15.90;95.00;;;;;;5047408;28;20049;-70
2024/01/26 10:23:37;;;;;;;5.75;1.55;;;16.00;95.90;;;;;;5071880;28;19923;-71
2024/01/26 10:26:03;;;;;;;7.07;1.70;;;;;;;;;;5050210;28;20056;-71
2024/01/26 10:28:29;;;;;;;5.07;1.83;;;;;;;;;;5034019;28;20075;-68
2024/01/26 10:30:55;;;;;;;8.68;2.92;;;15.70;95.90;;;;;;5037073;28;20124;-66
2024/01/26 10:33:22;;;;;;;9.43;3.45;;;16.00;96.00;;;;;;5035147;28;20120;-71
2024/01/26 10:35:51;;;;;;;8.52;3.97;;;15.80;94.80;;;;;;5035239;28;20420;-70
2024/01/26 10:38:17;;;;;;;9.18;4.10;;;15.70;96.00;;;;;;5048402;28;20057;-71
2024/01/26 10:40:43;;;;;;;7.97;3.60;;;15.80;96.10;;;;;;5033903;28;20462;-71
2024/01/26 10:43:10;;;;;;;9.27;3.30;;;15.80;96.10;;;;;;5033316;28;20398;-71
2024/01/26 10:45:37;;;;;;;8.07;2.60;;;15.80;96.10;;;;;;5049338;28;20399;-71
2024/01/26 10:48:03;;;;;;;6.18;2.53;;;16.00;95.80;;;;;;5046503;28;20573;-65
2024/01/26 10:50:29;;;;;;;8.65;2.63;;;15.90;96.20;;;;;;5015466;28;20059;-71
2024/01/26 10:52:54;;;;;;;7.85;2.10;;;15.90;96.20;;;;;;5051295;28;20064;-65
2024/01/26 10:55:21;;;;;;;7.90;2.20;;;;;;;;;;5032881;28;20145;-71
2024/01/26 10:57:46;;;;;;;8.15;2.53;;;15.80;96.20;;;;;;5049265;28;20102;-70
2024/01/26 11:00:14;;;;;;;6.43;2.08;;;15.80;96.30;;;;;;5033114;28;20041;-70
2024/01/26 11:02:40;;;;;;;7.53;1.95;;;;;;;;;;5016352;28;20052;-66
2024/01/26 11:05:09;;;;;;;7.18;2.22;;;15.90;96.30;;;;;;5048889;28;20045;-65
2024/01/26 11:07:39;;;;;;;7.78;2.20;;;16.00;96.60;;;;;;5034065;28;20475;-71
2024/01/26 11:10:08;;;;;;;8.07;2.33;;;15.80;96.20;;;;;;5031727;28;20049;-66
2024/01/26 11:12:34;;;;;;;6.13;2.25;;;16.00;96.30;;;;;;5005040;28;20049;-66
2024/01/26 11:15:08;;;;;;;7.30;2.30;;;15.90;94.10;;;;;;5047970;28;20447;-70
2024/01/26 11:17:51;;;;;;;8.60;2.70;;;15.80;96.00;;;;;;5030815;28;20045;-66
2024/01/26 11:20:25;;;;;;;29.15;3.90;;;15.90;96.10;;;;;;5034638;28;20045;-70
2024/01/26 11:23:14;;;;;;;19.20;3.85;;;16.00;96.00;;;;;;5033419;28;20491;-68
2024/01/26 11:25:44;;;;;;;15.73;3.17;;;15.90;95.80;;;;;;5032379;28;20419;-71
2024/01/26 11:28:10;;;;;;;15.35;2.65;;;16.10;95.80;;;;;;5048293;28;20115;-70
2024/01/26 11:30:37;;;;;;;12.73;3.22;;;;;;;;;;5033545;28;20067;-70
2024/01/26 11:33:03;;;;;;;11.88;3.20;;;15.70;94.20;;;;;;5031886;28;20458;-70
2024/01/26 11:35:29;;;;;;;13.68;2.78;;;;;;;;;;5015891;28;20122;-69
2024/01/26 11:37:58;;;;;;;12.13;3.35;;;16.00;95.60;;;;;;5030936;28;20050;-71
2024/01/26 11:40:24;;;;;;;8.00;2.40;;;16.00;95.60;;;;;;5033604;28;20053;-70
2024/01/26 11:42:50;;;;;;;11.38;3.20;;;15.80;95.50;;;;;;5047948;28;20053;-66
2024/01/26 11:45:36;;;;;;;9.95;2.80;;;15.90;95.50;;;;;;5033133;28;20041;-69
2024/01/26 11:48:05;;;;;;;8.65;2.53;;;16.20;94.30;;;;;;5031493;28;20495;-67
2024/01/26 11:50:31;;;;;;;12.13;2.85;;;16.00;95.40;;;;;;5031773;28;20102;-67
2024/01/26 11:52:57;;;;;;;12.07;2.80;;;;;;;;;;5034613;28;20067;-68
2024/01/26 11:55:23;;;;;;;8.60;2.50;;;15.90;95.30;;;;;;5032010;28;20505;-66
2024/01/26 11:57:51;;;;;;;11.95;3.22;;;16.10;95.40;;;;;;5016620;28;20096;-67
2024/01/26 12:00:18;;;;;;;9.57;2.22;;;15.90;95.30;;;;;;5047050;28;20041;-67
2024/01/26 12:02:44;;;;;;;9.52;2.70;;;;;;;;;;5031933;28;20050;-68
2024/01/26 12:05:10;;;;;;;7.30;2.83;;;16.10;95.30;;;;;;5031107;28;20037;-67
2024/01/26 12:07:36;;;;;;;11.63;2.67;;;16.00;95.30;;;;;;5064606;28;20096;-67
2024/01/26 12:10:03;;;;;;;9.55;2.75;;;;;;;;;;5030314;28;20052;-67
2024/01/26 12:12:30;;;;;;;9.77;3.03;;;16.00;94.00;;;;;;5028300;28;20056;-69
2024/01/26 12:14:56;;;;;;;9.52;2.55;;;15.90;95.20;;;;;;5027605;28;20099;-67
2024/01/26 12:17:21;;;;;;;8.18;2.88;;;15.90;95.20;;;;;;5034875;28;20479;-72
2024/01/26 12:19:48;;;;;;;12.35;3.40;;;16.00;95.20;;;;;;5014286;28;20136;-70
2024/01/26 12:22:15;;;;;;;10.43;3.00;;;;;;;;;;5030782;28;20053;-71
2024/01/26 12:24:40;;;;;;;7.60;2.80;;;16.00;95.10;;;;;;5013827;28;20041;-74
2024/01/26 12:27:07;;;;;;;12.48;2.85;;;;;;;;;;4998006;28;20083;-70
2024/01/26 12:29:33;;;;;;;12.82;3.10;;;16.00;95.10;;;;;;5062220;28;20049;-67
2024/01/26 12:32:05;;;;;;;19.02;3.65;;;16.00;95.10;;;;;;5047888;28;20053;-67
2024/01/26 12:34:33;;;;;;;15.43;3.55;;;;;;;;;;5047358;28;20053;-67
2024/01/26 12:37:00;;;;;;;13.38;3.42;;;15.90;95.00;;;;;;5014807;28;20136;-67
2024/01/26 12:39:26;;;;;;;13.80;3.03;;;16.00;93.90;;;;;;5030709;28;20061;-68
2024/01/26 12:41:53;;;;;;;12.02;2.63;;;15.80;95.00;;;;;;5030655;28;20140;-70
2024/01/26 12:44:20;;;;;;;47.08;5.68;;;;;;;;;;5028509;28;20088;-68
2024/01/26 12:46:46;;;;;;;158.65;14.32;;;;;;;;;;5061075;28;20084;-70
2024/01/26 12:49:11;;;;;;;155.13;14.32;;;15.80;95.00;;;;;;5031188;28;20053;-67
2024/01/26 12:51:38;;;;;;;83.32;8.60;;;;;;;;;;5047417;28;20502;-69
2024/01/26 12:54:04;;;;;;;64.93;8.57;;;;;;;;;;5031977;28;20045;-70
2024/01/26 12:56:33;;;;;;;51.75;7.25;;;15.70;94.90;;;;;;5025609;28;20163;-65
2024/01/26 12:59:00;;;;;;;51.15;6.40;;;;;;;;;;5030038;28;20054;-65
2024/01/26 13:01:26;;;;;;;48.63;6.20;;;;;;;;;;5030525;28;20441;-64
2024/01/26 13:03:52;;;;;;;34.97;5.45;;;;;;;;;;5032068;28;20045;-64
2024/01/26 13:06:17;;;;;;;33.15;5.65;;;15.80;95.00;;;;;;5031372;28;20041;-65